sensor_id;sensor_type;location;lat;lon;timestamp;P1;durP1;ratioP1;P2;durP2;ratioP2
2019;SDS011;1014;51.960;8.542;2023-02-13T00:01:15;29.00;;;26.60;;
2019;SDS011;1014;51.960;8.542;2023-02-13T00:03:43;28.43;;;26.27;;
2019;SDS011;1014;51.960;8.542;2023-02-13T00:06:10;29.53;;;27.13;;
2019;SDS011;1014;51.960;8.542;2023-02-13T00:08:37;27.97;;;25.77;;
2019;SDS011;1014;51.960;8.542;2023-02-13T00:11:04;28.23;;;25.77;;
2019;SDS011;1014;51.960;8.542;2023-02-13T00:13:32;28.67;;;26.40;;
2019;SDS011;1014;51.960;8.542;2023-02-13T00:16:00;27.53;;;25.27;;
2019;SDS011;1014;51.960;8.542;2023-02-13T00:18:28;27.77;;;25.47;;
2019;SDS011;1014;51.960;8.542;2023-02-13T00:20:57;27.07;;;24.83;;
2019;SDS011;1014;51.960;8.542;2023-02-13T00:23:24;26.30;;;24.20;;
2019;SDS011;1014;51.960;8.542;2023-02-13T00:25:51;28.13;;;25.57;;
2019;SDS011;1014;51.960;8.542;2023-02-13T00:28:18;26.63;;;24.53;;
2019;SDS011;1014;51.960;8.542;2023-02-13T00:30:45;27.03;;;25.03;;
2019;SDS011;1014;51.960;8.542;2023-02-13T00:33:12;27.53;;;25.37;;
2019;SDS011;1014;51.960;8.542;2023-02-13T00:35:39;28.33;;;25.93;;
2019;SDS011;1014;51.960;8.542;2023-02-13T00:38:07;27.10;;;25.00;;
2019;SDS011;1014;51.960;8.542;2023-02-13T00:40:34;26.93;;;24.80;;
2019;SDS011;1014;51.960;8.542;2023-02-13T00:43:01;27.23;;;25.00;;
2019;SDS011;1014;51.960;8.542;2023-02-13T00:45:28;27.10;;;24.90;;
2019;SDS011;1014;51.960;8.542;2023-02-13T00:47:55;27.20;;;24.80;;
2019;SDS011;1014;51.960;8.542;2023-02-13T00:50:22;26.50;;;24.40;;
2019;SDS011;1014;51.960;8.542;2023-02-13T00:52:49;26.20;;;24.10;;
2019;SDS011;1014;51.960;8.542;2023-02-13T00:55:17;28.40;;;26.10;;
2019;SDS011;1014;51.960;8.542;2023-02-13T00:57:44;27.67;;;25.60;;
2019;SDS011;1014;51.960;8.542;2023-02-13T01:00:12;27.60;;;25.37;;
2019;SDS011;1014;51.960;8.542;2023-02-13T01:02:39;26.80;;;24.77;;
2019;SDS011;1014;51.960;8.542;2023-02-13T01:05:06;27.67;;;25.67;;
2019;SDS011;1014;51.960;8.542;2023-02-13T01:07:33;28.23;;;25.83;;
2019;SDS011;1014;51.960;8.542;2023-02-13T01:10:00;27.03;;;25.03;;
2019;SDS011;1014;51.960;8.542;2023-02-13T01:12:29;27.70;;;25.60;;
2019;SDS011;1014;51.960;8.542;2023-02-13T01:14:57;26.60;;;24.40;;
2019;SDS011;1014;51.960;8.542;2023-02-13T01:17:24;27.97;;;25.67;;
2019;SDS011;1014;51.960;8.542;2023-02-13T01:19:51;27.40;;;24.90;;
2019;SDS011;1014;51.960;8.542;2023-02-13T01:22:18;27.00;;;24.80;;
2019;SDS011;1014;51.960;8.542;2023-02-13T01:24:45;26.23;;;24.10;;
2019;SDS011;1014;51.960;8.542;2023-02-13T01:27:12;26.10;;;23.97;;
2019;SDS011;1014;51.960;8.542;2023-02-13T01:29:41;26.87;;;24.77;;
2019;SDS011;1014;51.960;8.542;2023-02-13T01:32:08;26.33;;;24.30;;
2019;SDS011;1014;51.960;8.542;2023-02-13T01:34:35;25.20;;;23.20;;
2019;SDS011;1014;51.960;8.542;2023-02-13T01:37:02;26.70;;;24.50;;
2019;SDS011;1014;51.960;8.542;2023-02-13T01:39:29;26.93;;;24.90;;
2019;SDS011;1014;51.960;8.542;2023-02-13T01:41:56;27.00;;;24.80;;
2019;SDS011;1014;51.960;8.542;2023-02-13T01:47:10;28.47;;;26.27;;
2019;SDS011;1014;51.960;8.542;2023-02-13T01:49:38;26.67;;;24.60;;
2019;SDS011;1014;51.960;8.542;2023-02-13T01:52:06;26.07;;;24.20;;
2019;SDS011;1014;51.960;8.542;2023-02-13T01:54:33;26.43;;;24.30;;
2019;SDS011;1014;51.960;8.542;2023-02-13T01:57:02;26.83;;;24.73;;
2019;SDS011;1014;51.960;8.542;2023-02-13T01:59:32;27.13;;;24.93;;
2019;SDS011;1014;51.960;8.542;2023-02-13T02:02:00;27.20;;;25.07;;
2019;SDS011;1014;51.960;8.542;2023-02-13T02:04:30;27.90;;;25.60;;
2019;SDS011;1014;51.960;8.542;2023-02-13T02:06:59;28.03;;;25.73;;
2019;SDS011;1014;51.960;8.542;2023-02-13T02:09:29;27.13;;;24.90;;
2019;SDS011;1014;51.960;8.542;2023-02-13T02:12:00;26.13;;;24.13;;
2019;SDS011;1014;51.960;8.542;2023-02-13T02:14:29;27.77;;;25.67;;
2019;SDS011;1014;51.960;8.542;2023-02-13T02:16:56;26.10;;;24.10;;
2019;SDS011;1014;51.960;8.542;2023-02-13T02:19:26;26.63;;;24.53;;
2019;SDS011;1014;51.960;8.542;2023-02-13T02:24:49;26.40;;;24.30;;
2019;SDS011;1014;51.960;8.542;2023-02-13T02:27:27;26.60;;;24.50;;
2019;SDS011;1014;51.960;8.542;2023-02-13T02:32:53;26.43;;;24.37;;
2019;SDS011;1014;51.960;8.542;2023-02-13T02:35:25;26.13;;;24.03;;
2019;SDS011;1014;51.960;8.542;2023-02-13T02:38:01;26.43;;;24.33;;
2019;SDS011;1014;51.960;8.542;2023-02-13T02:40:33;26.47;;;24.40;;
2019;SDS011;1014;51.960;8.542;2023-02-13T02:43:12;27.50;;;25.40;;
2019;SDS011;1014;51.960;8.542;2023-02-13T02:45:40;26.70;;;24.40;;
2019;SDS011;1014;51.960;8.542;2023-02-13T02:48:13;27.00;;;25.00;;
2019;SDS011;1014;51.960;8.542;2023-02-13T02:51:01;26.57;;;24.40;;
2019;SDS011;1014;51.960;8.542;2023-02-13T02:53:30;27.83;;;25.67;;
2019;SDS011;1014;51.960;8.542;2023-02-13T02:56:00;27.93;;;25.70;;
2019;SDS011;1014;51.960;8.542;2023-02-13T02:58:30;26.80;;;24.40;;
2019;SDS011;1014;51.960;8.542;2023-02-13T03:01:17;28.17;;;25.87;;
2019;SDS011;1014;51.960;8.542;2023-02-13T03:04:04;27.93;;;25.50;;
2019;SDS011;1014;51.960;8.542;2023-02-13T03:06:50;28.33;;;25.67;;
2019;SDS011;1014;51.960;8.542;2023-02-13T03:09:19;28.20;;;25.60;;
2019;SDS011;1014;51.960;8.542;2023-02-13T03:12:05;27.80;;;25.60;;
2019;SDS011;1014;51.960;8.542;2023-02-13T03:15:03;29.03;;;26.40;;
2019;SDS011;1014;51.960;8.542;2023-02-13T03:17:30;27.37;;;25.17;;
2019;SDS011;1014;51.960;8.542;2023-02-13T03:20:19;28.03;;;25.70;;
2019;SDS011;1014;51.960;8.542;2023-02-13T03:23:10;28.83;;;26.43;;
2019;SDS011;1014;51.960;8.542;2023-02-13T03:25:44;29.53;;;27.10;;
2019;SDS011;1014;51.960;8.542;2023-02-13T03:28:15;29.70;;;27.00;;
2019;SDS011;1014;51.960;8.542;2023-02-13T03:31:02;28.00;;;25.70;;
2019;SDS011;1014;51.960;8.542;2023-02-13T03:33:36;29.47;;;26.77;;
2019;SDS011;1014;51.960;8.542;2023-02-13T03:36:09;29.30;;;26.63;;
2019;SDS011;1014;51.960;8.542;2023-02-13T03:38:56;30.50;;;28.00;;
2019;SDS011;1014;51.960;8.542;2023-02-13T03:41:26;29.80;;;27.13;;
2019;SDS011;1014;51.960;8.542;2023-02-13T03:43:57;31.13;;;28.33;;
2019;SDS011;1014;51.960;8.542;2023-02-13T03:46:27;31.60;;;28.47;;
2019;SDS011;1014;51.960;8.542;2023-02-13T03:48:56;30.40;;;27.73;;
2019;SDS011;1014;51.960;8.542;2023-02-13T03:51:44;31.77;;;28.80;;
2019;SDS011;1014;51.960;8.542;2023-02-13T03:54:16;28.57;;;25.93;;
2019;SDS011;1014;51.960;8.542;2023-02-13T03:56:44;30.53;;;27.73;;
2019;SDS011;1014;51.960;8.542;2023-02-13T03:59:34;28.67;;;26.27;;
2019;SDS011;1014;51.960;8.542;2023-02-13T04:02:04;29.93;;;27.43;;
2019;SDS011;1014;51.960;8.542;2023-02-13T04:04:34;30.40;;;27.60;;
2019;SDS011;1014;51.960;8.542;2023-02-13T04:07:07;28.57;;;25.97;;
2019;SDS011;1014;51.960;8.542;2023-02-13T04:09:36;26.30;;;24.20;;
2019;SDS011;1014;51.960;8.542;2023-02-13T04:12:05;29.03;;;26.33;;
2019;SDS011;1014;51.960;8.542;2023-02-13T04:14:35;28.87;;;26.37;;
2019;SDS011;1014;51.960;8.542;2023-02-13T04:17:04;29.80;;;27.43;;
2019;SDS011;1014;51.960;8.542;2023-02-13T04:19:32;28.30;;;25.90;;
2019;SDS011;1014;51.960;8.542;2023-02-13T04:21:59;28.70;;;26.30;;
2019;SDS011;1014;51.960;8.542;2023-02-13T04:24:28;27.93;;;25.53;;
2019;SDS011;1014;51.960;8.542;2023-02-13T04:26:55;27.67;;;25.37;;
2019;SDS011;1014;51.960;8.542;2023-02-13T04:29:23;26.67;;;24.40;;
2019;SDS011;1014;51.960;8.542;2023-02-13T04:31:50;27.47;;;25.07;;
2019;SDS011;1014;51.960;8.542;2023-02-13T04:34:17;29.70;;;27.03;;
2019;SDS011;1014;51.960;8.542;2023-02-13T04:36:44;27.07;;;24.87;;
2019;SDS011;1014;51.960;8.542;2023-02-13T04:39:11;28.40;;;26.00;;
2019;SDS011;1014;51.960;8.542;2023-02-13T04:41:39;28.57;;;26.27;;
2019;SDS011;1014;51.960;8.542;2023-02-13T04:44:06;28.43;;;26.07;;
2019;SDS011;1014;51.960;8.542;2023-02-13T04:46:33;27.47;;;25.23;;
2019;SDS011;1014;51.960;8.542;2023-02-13T04:49:00;28.70;;;26.40;;
2019;SDS011;1014;51.960;8.542;2023-02-13T04:51:27;26.77;;;24.67;;
2019;SDS011;1014;51.960;8.542;2023-02-13T04:53:54;27.13;;;24.67;;
2019;SDS011;1014;51.960;8.542;2023-02-13T04:56:21;27.33;;;25.13;;
2019;SDS011;1014;51.960;8.542;2023-02-13T04:58:50;27.00;;;24.70;;
2019;SDS011;1014;51.960;8.542;2023-02-13T05:01:17;28.73;;;26.27;;
2019;SDS011;1014;51.960;8.542;2023-02-13T05:03:44;27.77;;;25.47;;
2019;SDS011;1014;51.960;8.542;2023-02-13T05:06:11;27.40;;;25.20;;
2019;SDS011;1014;51.960;8.542;2023-02-13T05:08:38;29.13;;;26.73;;
2019;SDS011;1014;51.960;8.542;2023-02-13T05:11:05;25.93;;;23.93;;
2019;SDS011;1014;51.960;8.542;2023-02-13T05:13:32;26.67;;;24.37;;
2019;SDS011;1014;51.960;8.542;2023-02-13T05:16:00;29.27;;;26.97;;
2019;SDS011;1014;51.960;8.542;2023-02-13T05:18:27;29.03;;;26.50;;
2019;SDS011;1014;51.960;8.542;2023-02-13T05:20:54;28.90;;;26.50;;
2019;SDS011;1014;51.960;8.542;2023-02-13T05:23:39;29.63;;;26.97;;
2019;SDS011;1014;51.960;8.542;2023-02-13T05:26:06;28.60;;;26.10;;
2019;SDS011;1014;51.960;8.542;2023-02-13T05:28:33;33.70;;;30.50;;
2019;SDS011;1014;51.960;8.542;2023-02-13T05:31:19;32.07;;;29.17;;
2019;SDS011;1014;51.960;8.542;2023-02-13T05:33:46;30.53;;;27.83;;
2019;SDS011;1014;51.960;8.542;2023-02-13T05:36:13;30.13;;;27.60;;
2019;SDS011;1014;51.960;8.542;2023-02-13T05:38:40;31.67;;;28.90;;
2019;SDS011;1014;51.960;8.542;2023-02-13T05:41:07;34.00;;;30.70;;
2019;SDS011;1014;51.960;8.542;2023-02-13T05:43:37;31.90;;;29.08;;
2019;SDS011;1014;51.960;8.542;2023-02-13T05:46:11;30.15;;;27.60;;
2019;SDS011;1014;51.960;8.542;2023-02-13T05:48:39;29.97;;;27.17;;
2019;SDS011;1014;51.960;8.542;2023-02-13T05:51:06;33.50;;;30.20;;
2019;SDS011;1014;51.960;8.542;2023-02-13T05:53:33;32.50;;;29.63;;
2019;SDS011;1014;51.960;8.542;2023-02-13T05:56:00;43.23;;;38.70;;
2019;SDS011;1014;51.960;8.542;2023-02-13T05:58:27;37.70;;;34.10;;
2019;SDS011;1014;51.960;8.542;2023-02-13T06:00:54;33.80;;;30.57;;
2019;SDS011;1014;51.960;8.542;2023-02-13T06:03:22;33.87;;;30.63;;
2019;SDS011;1014;51.960;8.542;2023-02-13T06:05:50;29.47;;;27.00;;
2019;SDS011;1014;51.960;8.542;2023-02-13T06:08:17;27.90;;;25.70;;
2019;SDS011;1014;51.960;8.542;2023-02-13T06:10:44;31.60;;;28.80;;
2019;SDS011;1014;51.960;8.542;2023-02-13T06:13:11;31.13;;;28.40;;
2019;SDS011;1014;51.960;8.542;2023-02-13T06:15:38;31.63;;;28.90;;
2019;SDS011;1014;51.960;8.542;2023-02-13T06:18:05;28.97;;;26.57;;
2019;SDS011;1014;51.960;8.542;2023-02-13T06:20:33;27.67;;;25.50;;
2019;SDS011;1014;51.960;8.542;2023-02-13T06:23:01;28.43;;;25.70;;
2019;SDS011;1014;51.960;8.542;2023-02-13T06:25:28;28.17;;;25.83;;
2019;SDS011;1014;51.960;8.542;2023-02-13T06:27:55;27.03;;;24.73;;
2019;SDS011;1014;51.960;8.542;2023-02-13T06:30:22;26.90;;;24.70;;
2019;SDS011;1014;51.960;8.542;2023-02-13T06:32:49;27.67;;;25.17;;
2019;SDS011;1014;51.960;8.542;2023-02-13T06:35:16;28.90;;;26.50;;
2019;SDS011;1014;51.960;8.542;2023-02-13T06:37:43;29.10;;;26.67;;
2019;SDS011;1014;51.960;8.542;2023-02-13T06:40:13;27.90;;;25.50;;
2019;SDS011;1014;51.960;8.542;2023-02-13T06:42:40;28.03;;;25.63;;
2019;SDS011;1014;51.960;8.542;2023-02-13T06:45:08;26.47;;;24.30;;
2019;SDS011;1014;51.960;8.542;2023-02-13T06:47:35;26.80;;;24.43;;
2019;SDS011;1014;51.960;8.542;2023-02-13T06:50:06;27.23;;;24.93;;
2019;SDS011;1014;51.960;8.542;2023-02-13T06:52:33;27.00;;;24.80;;
2019;SDS011;1014;51.960;8.542;2023-02-13T06:55:00;27.17;;;24.73;;
2019;SDS011;1014;51.960;8.542;2023-02-13T06:57:29;27.90;;;25.30;;
2019;SDS011;1014;51.960;8.542;2023-02-13T06:59:57;28.43;;;25.90;;
2019;SDS011;1014;51.960;8.542;2023-02-13T07:02:24;27.60;;;25.17;;
2019;SDS011;1014;51.960;8.542;2023-02-13T07:04:51;25.87;;;23.87;;
2019;SDS011;1014;51.960;8.542;2023-02-13T07:07:18;25.17;;;23.10;;
2019;SDS011;1014;51.960;8.542;2023-02-13T07:09:45;26.63;;;24.63;;
2019;SDS011;1014;51.960;8.542;2023-02-13T07:12:12;27.53;;;25.30;;
2019;SDS011;1014;51.960;8.542;2023-02-13T07:14:40;27.53;;;25.33;;
2019;SDS011;1014;51.960;8.542;2023-02-13T07:17:07;25.97;;;23.93;;
2019;SDS011;1014;51.960;8.542;2023-02-13T07:19:35;27.13;;;24.83;;
2019;SDS011;1014;51.960;8.542;2023-02-13T07:22:02;25.03;;;23.13;;
2019;SDS011;1014;51.960;8.542;2023-02-13T07:24:29;25.50;;;23.50;;
2019;SDS011;1014;51.960;8.542;2023-02-13T07:26:57;26.50;;;24.50;;
2019;SDS011;1014;51.960;8.542;2023-02-13T07:29:24;27.37;;;25.27;;
2019;SDS011;1014;51.960;8.542;2023-02-13T07:31:53;27.57;;;25.37;;
2019;SDS011;1014;51.960;8.542;2023-02-13T07:34:20;26.13;;;23.93;;
2019;SDS011;1014;51.960;8.542;2023-02-13T07:36:47;26.40;;;24.33;;
2019;SDS011;1014;51.960;8.542;2023-02-13T07:39:14;27.43;;;25.23;;
2019;SDS011;1014;51.960;8.542;2023-02-13T07:41:41;26.17;;;24.13;;
2019;SDS011;1014;51.960;8.542;2023-02-13T07:44:08;25.50;;;23.50;;
2019;SDS011;1014;51.960;8.542;2023-02-13T07:46:35;26.50;;;24.50;;
2019;SDS011;1014;51.960;8.542;2023-02-13T07:49:03;25.93;;;23.83;;
2019;SDS011;1014;51.960;8.542;2023-02-13T07:51:30;25.33;;;23.47;;
2019;SDS011;1014;51.960;8.542;2023-02-13T07:53:57;24.47;;;22.77;;
2019;SDS011;1014;51.960;8.542;2023-02-13T07:56:24;24.90;;;23.00;;
2019;SDS011;1014;51.960;8.542;2023-02-13T07:58:51;24.77;;;23.03;;
2019;SDS011;1014;51.960;8.542;2023-02-13T08:01:18;25.50;;;23.80;;
2019;SDS011;1014;51.960;8.542;2023-02-13T08:03:46;24.77;;;23.07;;
2019;SDS011;1014;51.960;8.542;2023-02-13T08:06:17;25.13;;;23.43;;
2019;SDS011;1014;51.960;8.542;2023-02-13T08:08:44;24.50;;;22.70;;
2019;SDS011;1014;51.960;8.542;2023-02-13T08:11:21;24.80;;;23.07;;
2019;SDS011;1014;51.960;8.542;2023-02-13T08:14:07;25.00;;;23.10;;
2019;SDS011;1014;51.960;8.542;2023-02-13T08:16:34;24.20;;;22.50;;
2019;SDS011;1014;51.960;8.542;2023-02-13T08:19:01;25.43;;;23.63;;
2019;SDS011;1014;51.960;8.542;2023-02-13T08:21:29;24.93;;;23.17;;
2019;SDS011;1014;51.960;8.542;2023-02-13T08:23:57;24.23;;;22.63;;
2019;SDS011;1014;51.960;8.542;2023-02-13T08:26:24;25.17;;;23.20;;
2019;SDS011;1014;51.960;8.542;2023-02-13T08:28:51;23.47;;;21.97;;
2019;SDS011;1014;51.960;8.542;2023-02-13T08:31:18;25.60;;;23.80;;
2019;SDS011;1014;51.960;8.542;2023-02-13T08:33:45;24.40;;;22.80;;
2019;SDS011;1014;51.960;8.542;2023-02-13T08:36:12;24.07;;;22.40;;
2019;SDS011;1014;51.960;8.542;2023-02-13T08:38:40;23.90;;;22.10;;
2019;SDS011;1014;51.960;8.542;2023-02-13T08:41:07;25.50;;;23.70;;
2019;SDS011;1014;51.960;8.542;2023-02-13T08:43:34;25.40;;;23.60;;
2019;SDS011;1014;51.960;8.542;2023-02-13T08:46:01;25.20;;;23.30;;
2019;SDS011;1014;51.960;8.542;2023-02-13T08:48:28;25.40;;;23.60;;
2019;SDS011;1014;51.960;8.542;2023-02-13T08:50:55;24.17;;;22.57;;
2019;SDS011;1014;51.960;8.542;2023-02-13T08:53:23;24.53;;;22.83;;
2019;SDS011;1014;51.960;8.542;2023-02-13T08:55:51;25.63;;;23.93;;
2019;SDS011;1014;51.960;8.542;2023-02-13T08:58:19;24.03;;;22.30;;
2019;SDS011;1014;51.960;8.542;2023-02-13T09:00:46;24.90;;;23.20;;
2019;SDS011;1014;51.960;8.542;2023-02-13T09:03:13;23.70;;;22.10;;
2019;SDS011;1014;51.960;8.542;2023-02-13T09:05:40;24.90;;;22.93;;
2019;SDS011;1014;51.960;8.542;2023-02-13T09:08:07;24.97;;;23.27;;
2019;SDS011;1014;51.960;8.542;2023-02-13T09:10:35;23.67;;;22.03;;
2019;SDS011;1014;51.960;8.542;2023-02-13T09:13:04;24.80;;;23.10;;
2019;SDS011;1014;51.960;8.542;2023-02-13T09:15:32;24.80;;;23.10;;
2019;SDS011;1014;51.960;8.542;2023-02-13T09:17:59;25.37;;;23.77;;
2019;SDS011;1014;51.960;8.542;2023-02-13T09:20:26;25.90;;;24.10;;
2019;SDS011;1014;51.960;8.542;2023-02-13T09:22:53;24.50;;;22.90;;
2019;SDS011;1014;51.960;8.542;2023-02-13T09:25:21;25.37;;;23.60;;
2019;SDS011;1014;51.960;8.542;2023-02-13T09:27:48;24.40;;;22.80;;
2019;SDS011;1014;51.960;8.542;2023-02-13T09:30:16;25.13;;;23.30;;
2019;SDS011;1014;51.960;8.542;2023-02-13T09:32:47;24.90;;;23.20;;
2019;SDS011;1014;51.960;8.542;2023-02-13T09:35:15;24.00;;;22.37;;
2019;SDS011;1014;51.960;8.542;2023-02-13T09:37:42;23.27;;;21.70;;
2019;SDS011;1014;51.960;8.542;2023-02-13T09:40:15;25.30;;;23.60;;
2019;SDS011;1014;51.960;8.542;2023-02-13T09:42:42;24.83;;;23.17;;
2019;SDS011;1014;51.960;8.542;2023-02-13T09:45:09;26.43;;;24.63;;
2019;SDS011;1014;51.960;8.542;2023-02-13T09:47:40;23.63;;;22.03;;
2019;SDS011;1014;51.960;8.542;2023-02-13T09:50:10;23.40;;;21.90;;
2019;SDS011;1014;51.960;8.542;2023-02-13T09:52:37;24.47;;;22.87;;
2019;SDS011;1014;51.960;8.542;2023-02-13T09:55:12;23.90;;;22.40;;
2019;SDS011;1014;51.960;8.542;2023-02-13T09:57:42;24.17;;;22.47;;
2019;SDS011;1014;51.960;8.542;2023-02-13T10:00:12;23.87;;;22.37;;
2019;SDS011;1014;51.960;8.542;2023-02-13T10:02:44;23.57;;;22.07;;
2019;SDS011;1014;51.960;8.542;2023-02-13T10:05:21;25.30;;;23.50;;
2019;SDS011;1014;51.960;8.542;2023-02-13T10:07:52;26.23;;;24.30;;
2019;SDS011;1014;51.960;8.542;2023-02-13T10:10:22;24.90;;;23.10;;
2019;SDS011;1014;51.960;8.542;2023-02-13T10:12:55;27.50;;;25.40;;
2019;SDS011;1014;51.960;8.542;2023-02-13T10:15:25;24.83;;;23.13;;
2019;SDS011;1014;51.960;8.542;2023-02-13T10:18:00;23.50;;;22.00;;
2019;SDS011;1014;51.960;8.542;2023-02-13T10:20:30;26.00;;;24.30;;
2019;SDS011;1014;51.960;8.542;2023-02-13T10:22:58;24.83;;;23.10;;
2019;SDS011;1014;51.960;8.542;2023-02-13T10:25:27;24.30;;;22.50;;
2019;SDS011;1014;51.960;8.542;2023-02-13T10:27:57;25.50;;;23.90;;
2019;SDS011;1014;51.960;8.542;2023-02-13T10:30:27;25.90;;;24.10;;
2019;SDS011;1014;51.960;8.542;2023-02-13T10:32:59;25.57;;;23.83;;
2019;SDS011;1014;51.960;8.542;2023-02-13T10:35:44;25.97;;;24.23;;
2019;SDS011;1014;51.960;8.542;2023-02-13T10:38:14;25.07;;;23.47;;
2019;SDS011;1014;51.960;8.542;2023-02-13T10:40:45;25.50;;;23.80;;
2019;SDS011;1014;51.960;8.542;2023-02-13T10:43:15;26.93;;;25.10;;
2019;SDS011;1014;51.960;8.542;2023-02-13T10:45:48;25.80;;;24.00;;
2019;SDS011;1014;51.960;8.542;2023-02-13T10:48:25;25.23;;;23.63;;
2019;SDS011;1014;51.960;8.542;2023-02-13T10:50:55;26.17;;;24.27;;
2019;SDS011;1014;51.960;8.542;2023-02-13T10:53:26;23.60;;;22.10;;
2019;SDS011;1014;51.960;8.542;2023-02-13T10:56:15;24.77;;;23.07;;
2019;SDS011;1014;51.960;8.542;2023-02-13T10:58:49;24.13;;;22.53;;
2019;SDS011;1014;51.960;8.542;2023-02-13T11:01:21;24.90;;;23.20;;
2019;SDS011;1014;51.960;8.542;2023-02-13T11:04:00;24.90;;;23.30;;
2019;SDS011;1014;51.960;8.542;2023-02-13T11:06:30;25.43;;;23.73;;
2019;SDS011;1014;51.960;8.542;2023-02-13T11:08:59;24.60;;;23.00;;
2019;SDS011;1014;51.960;8.542;2023-02-13T11:11:27;24.77;;;23.17;;
2019;SDS011;1014;51.960;8.542;2023-02-13T11:14:01;25.13;;;23.53;;
2019;SDS011;1014;51.960;8.542;2023-02-13T11:16:36;24.87;;;23.27;;
2019;SDS011;1014;51.960;8.542;2023-02-13T11:19:05;24.80;;;23.20;;
2019;SDS011;1014;51.960;8.542;2023-02-13T11:21:41;24.50;;;22.90;;
2019;SDS011;1014;51.960;8.542;2023-02-13T11:24:15;25.00;;;23.30;;
2019;SDS011;1014;51.960;8.542;2023-02-13T11:26:42;23.93;;;22.37;;
2019;SDS011;1014;51.960;8.542;2023-02-13T11:29:15;24.30;;;22.70;;
2019;SDS011;1014;51.960;8.542;2023-02-13T11:31:42;24.83;;;23.20;;
2019;SDS011;1014;51.960;8.542;2023-02-13T11:34:24;24.60;;;22.90;;
2019;SDS011;1014;51.960;8.542;2023-02-13T11:36:52;25.87;;;24.17;;
2019;SDS011;1014;51.960;8.542;2023-02-13T11:39:19;25.07;;;23.47;;
2019;SDS011;1014;51.960;8.542;2023-02-13T11:41:47;26.23;;;24.43;;
2019;SDS011;1014;51.960;8.542;2023-02-13T11:44:19;25.73;;;24.03;;
2019;SDS011;1014;51.960;8.542;2023-02-13T11:46:49;24.10;;;22.50;;
2019;SDS011;1014;51.960;8.542;2023-02-13T11:49:18;26.07;;;24.27;;
2019;SDS011;1014;51.960;8.542;2023-02-13T11:51:48;24.80;;;23.10;;
2019;SDS011;1014;51.960;8.542;2023-02-13T11:54:18;25.20;;;23.50;;
2019;SDS011;1014;51.960;8.542;2023-02-13T11:56:48;24.20;;;22.67;;
2019;SDS011;1014;51.960;8.542;2023-02-13T11:59:15;24.87;;;23.17;;
2019;SDS011;1014;51.960;8.542;2023-02-13T12:01:42;25.30;;;23.60;;
2019;SDS011;1014;51.960;8.542;2023-02-13T12:04:13;26.57;;;24.77;;
2019;SDS011;1014;51.960;8.542;2023-02-13T12:06:42;25.77;;;24.17;;
2019;SDS011;1014;51.960;8.542;2023-02-13T12:09:24;26.63;;;24.93;;
2019;SDS011;1014;51.960;8.542;2023-02-13T12:11:51;26.90;;;25.00;;
2019;SDS011;1014;51.960;8.542;2023-02-13T12:14:20;25.63;;;23.93;;
2019;SDS011;1014;51.960;8.542;2023-02-13T12:16:47;25.40;;;23.63;;
2019;SDS011;1014;51.960;8.542;2023-02-13T12:19:17;25.83;;;24.13;;
2019;SDS011;1014;51.960;8.542;2023-02-13T12:21:49;26.60;;;24.97;;
2019;SDS011;1014;51.960;8.542;2023-02-13T12:24:21;26.33;;;24.63;;
2019;SDS011;1014;51.960;8.542;2023-02-13T12:26:58;26.57;;;24.60;;
2019;SDS011;1014;51.960;8.542;2023-02-13T12:29:38;26.37;;;24.57;;
2019;SDS011;1014;51.960;8.542;2023-02-13T12:32:14;26.07;;;24.37;;
2019;SDS011;1014;51.960;8.542;2023-02-13T12:35:01;25.30;;;23.60;;
2019;SDS011;1014;51.960;8.542;2023-02-13T12:37:43;26.03;;;24.43;;
2019;SDS011;1014;51.960;8.542;2023-02-13T12:43:03;25.00;;;23.50;;
2019;SDS011;1014;51.960;8.542;2023-02-13T12:45:34;24.23;;;22.63;;
2019;SDS011;1014;51.960;8.542;2023-02-13T12:48:09;25.90;;;24.13;;
2019;SDS011;1014;51.960;8.542;2023-02-13T12:50:45;24.80;;;23.20;;
2019;SDS011;1014;51.960;8.542;2023-02-13T12:53:22;25.77;;;23.97;;
2019;SDS011;1014;51.960;8.542;2023-02-13T12:55:57;24.97;;;23.37;;
2019;SDS011;1014;51.960;8.542;2023-02-13T12:58:33;25.73;;;24.03;;
2019;SDS011;1014;51.960;8.542;2023-02-13T13:01:06;25.77;;;24.17;;
2019;SDS011;1014;51.960;8.542;2023-02-13T13:03:40;25.73;;;24.03;;
2019;SDS011;1014;51.960;8.542;2023-02-13T13:06:17;25.40;;;23.80;;
2019;SDS011;1014;51.960;8.542;2023-02-13T13:08:51;25.97;;;24.27;;
2019;SDS011;1014;51.960;8.542;2023-02-13T13:11:26;25.50;;;23.80;;
2019;SDS011;1014;51.960;8.542;2023-02-13T13:13:59;24.93;;;23.27;;
2019;SDS011;1014;51.960;8.542;2023-02-13T13:16:33;25.73;;;24.23;;
2019;SDS011;1014;51.960;8.542;2023-02-13T13:19:07;25.80;;;24.20;;
2019;SDS011;1014;51.960;8.542;2023-02-13T13:21:38;24.73;;;23.13;;
2019;SDS011;1014;51.960;8.542;2023-02-13T13:24:10;25.10;;;23.20;;
2019;SDS011;1014;51.960;8.542;2023-02-13T13:26:40;24.57;;;22.97;;
2019;SDS011;1014;51.960;8.542;2023-02-13T13:29:10;25.10;;;23.50;;
2019;SDS011;1014;51.960;8.542;2023-02-13T13:31:38;25.07;;;23.37;;
2019;SDS011;1014;51.960;8.542;2023-02-13T13:34:07;25.40;;;23.70;;
2019;SDS011;1014;51.960;8.542;2023-02-13T13:36:41;25.00;;;23.40;;
2019;SDS011;1014;51.960;8.542;2023-02-13T13:39:14;25.97;;;24.37;;
2019;SDS011;1014;51.960;8.542;2023-02-13T13:41:46;25.53;;;24.00;;
2019;SDS011;1014;51.960;8.542;2023-02-13T13:44:22;26.57;;;24.87;;
2019;SDS011;1014;51.960;8.542;2023-02-13T13:46:55;25.80;;;24.20;;
2019;SDS011;1014;51.960;8.542;2023-02-13T13:49:33;26.50;;;24.90;;
2019;SDS011;1014;51.960;8.542;2023-02-13T13:52:17;25.30;;;23.80;;
2019;SDS011;1014;51.960;8.542;2023-02-13T13:54:45;26.53;;;24.87;;
2019;SDS011;1014;51.960;8.542;2023-02-13T13:57:15;26.07;;;24.60;;
2019;SDS011;1014;51.960;8.542;2023-02-13T14:02:43;24.63;;;23.13;;
2019;SDS011;1014;51.960;8.542;2023-02-13T14:05:24;24.13;;;22.73;;
2019;SDS011;1014;51.960;8.542;2023-02-13T14:07:51;25.93;;;24.30;;
2019;SDS011;1014;51.960;8.542;2023-02-13T14:13:05;23.50;;;22.10;;
2019;SDS011;1014;51.960;8.542;2023-02-13T14:15:48;24.83;;;23.23;;
2019;SDS011;1014;51.960;8.542;2023-02-13T14:18:19;23.77;;;22.33;;
2019;SDS011;1014;51.960;8.542;2023-02-13T14:20:50;23.93;;;22.43;;
2019;SDS011;1014;51.960;8.542;2023-02-13T14:23:22;23.53;;;22.03;;
2019;SDS011;1014;51.960;8.542;2023-02-13T14:28:34;24.23;;;22.63;;
2019;SDS011;1014;51.960;8.542;2023-02-13T14:31:05;24.40;;;22.80;;
2019;SDS011;1014;51.960;8.542;2023-02-13T14:33:34;25.00;;;23.30;;
2019;SDS011;1014;51.960;8.542;2023-02-13T14:36:02;25.90;;;24.30;;
2019;SDS011;1014;51.960;8.542;2023-02-13T14:38:30;25.67;;;24.07;;
2019;SDS011;1014;51.960;8.542;2023-02-13T14:40:57;24.30;;;22.53;;
2019;SDS011;1014;51.960;8.542;2023-02-13T14:43:28;24.23;;;22.73;;
2019;SDS011;1014;51.960;8.542;2023-02-13T14:45:58;24.80;;;23.30;;
2019;SDS011;1014;51.960;8.542;2023-02-13T14:48:32;24.57;;;23.07;;
2019;SDS011;1014;51.960;8.542;2023-02-13T14:51:01;23.70;;;22.20;;
2019;SDS011;1014;51.960;8.542;2023-02-13T14:53:29;24.10;;;22.60;;
2019;SDS011;1014;51.960;8.542;2023-02-13T14:55:58;24.30;;;22.77;;
2019;SDS011;1014;51.960;8.542;2023-02-13T14:58:27;25.10;;;23.50;;
2019;SDS011;1014;51.960;8.542;2023-02-13T15:00:56;24.33;;;22.83;;
2019;SDS011;1014;51.960;8.542;2023-02-13T15:03:26;23.67;;;22.23;;
2019;SDS011;1014;51.960;8.542;2023-02-13T15:05:55;23.93;;;22.33;;
2019;SDS011;1014;51.960;8.542;2023-02-13T15:08:25;23.70;;;22.20;;
2019;SDS011;1014;51.960;8.542;2023-02-13T15:10:53;23.70;;;22.30;;
2019;SDS011;1014;51.960;8.542;2023-02-13T15:13:22;23.70;;;22.30;;
2019;SDS011;1014;51.960;8.542;2023-02-13T15:15:52;24.13;;;22.63;;
2019;SDS011;1014;51.960;8.542;2023-02-13T15:18:20;24.83;;;23.43;;
2019;SDS011;1014;51.960;8.542;2023-02-13T15:20:47;24.60;;;23.20;;
2019;SDS011;1014;51.960;8.542;2023-02-13T15:23:18;23.47;;;21.87;;
2019;SDS011;1014;51.960;8.542;2023-02-13T15:25:47;22.90;;;21.60;;